^^
Grace C. Lehan Memorial Weather Station Historical Data
Daily Summary for June 28, 2021 Units:  English    Metric   Both
Daily Weekly Monthly Yearly
  High: Low: Average:
Temperature: 68.4 °F 56.8 °F 63.7 °F
Dew Point: 64.7 °F 54.8 °F 60.3 °F
Humidity: 96% 79.5% 89%
Wind Speed: 2.9mph 0mph 0.1mph
Wind Gust: 11mph - -
Wind- - West
Pressure: 29.84 in 29.72 in -
Precipitation: 0.49 in    
 
 
Tabular Data for June 28, 2021
Time Temperature Dew Point Pressure Wind Wind Speed Wind Gust Humidity Rainfall Rate (Hourly) solar
00:09 66.4 °F 60.4 °F 29.80 in Calm     81% 0.00 in 0 W/m2
00:14 66.3 °F 60.3 °F 29.80 in SSW 0.3 mph 5 mph 81% 0.00 in 0 W/m2
00:19 66.2 °F 60.3 °F 29.80 in Calm   5 mph 81.2% 0.00 in 0 W/m2
00:24 66.1 °F 60.5 °F 29.80 in Calm   5 mph 82% 0.00 in 0 W/m2
00:29 66 °F 60.4 °F 29.80 in Calm   5 mph 82% 0.00 in 0 W/m2
00:34 65.9 °F 60.3 °F 29.80 in Calm   5 mph 82% 0.00 in 0 W/m2
00:39 65.9 °F 60.2 °F 29.80 in Calm     82% 0.00 in 0 W/m2
00:44 65.8 °F 60.1 °F 29.80 in Calm     82% 0.00 in 0 W/m2
00:49 65.7 °F 60.1 °F 29.80 in Calm     82% 0.00 in 0 W/m2
00:54 65.6 °F 60 °F 29.80 in Calm     82% 0.00 in 0 W/m2
00:59 65.6 °F 60 °F 29.80 in Calm     82% 0.00 in 0 W/m2
01:04 65.5 °F 59.9 °F 29.80 in Calm     82% 0.00 in 0 W/m2
01:09 65.4 °F 59.8 °F 29.80 in Calm     82% 0.00 in 0 W/m2
01:14 65.3 °F 59.7 °F 29.80 in Calm     82% 0.00 in 0 W/m2
01:19 65.2 °F 59.6 °F 29.80 in Calm     82% 0.00 in 0 W/m2
01:24 65.2 °F 59.5 °F 29.79 in Calm     82% 0.00 in 0 W/m2
01:29 65 °F 59.7 °F 29.79 in Calm     83% 0.00 in 0 W/m2
01:34 64.9 °F 59.4 °F 29.79 in Calm     82.6% 0.00 in 0 W/m2
01:39 64.7 °F 59.1 °F 29.79 in Calm     82% 0.00 in 0 W/m2
01:44 64.6 °F 59 °F 29.79 in Calm     82.2% 0.00 in 0 W/m2
01:49 64.4 °F 58.9 °F 29.79 in Calm     82.1% 0.00 in 0 W/m2
01:54 64.3 °F 58.7 °F 29.79 in Calm     82% 0.00 in 0 W/m2
01:59 64.3 °F 58.7 °F 29.79 in Calm     82% 0.00 in 0 W/m2
02:04 64.2 °F 58.6 °F 29.79 in Calm     82% 0.00 in 0 W/m2
02:09 64.1 °F 58.5 °F 29.79 in Calm     82% 0.00 in 0 W/m2
02:14 64.1 °F 58.5 °F 29.79 in Calm     82% 0.00 in 0 W/m2
02:19 64 °F 58.4 °F 29.78 in Calm     82% 0.00 in 0 W/m2
02:24 64 °F 58.1 °F 29.78 in Calm     81.1% 0.00 in 0 W/m2
02:29 64.1 °F 58.1 °F 29.78 in Calm     81% 0.00 in 0 W/m2
02:34 64.1 °F 58.2 °F 29.78 in Calm     81% 0.00 in 0 W/m2
02:39 64.1 °F 57.9 °F 29.78 in Calm     80.2% 0.00 in 0 W/m2
02:44 64.2 °F 57.9 °F 29.78 in Calm     80% 0.00 in 0 W/m2
02:49 64.2 °F 57.9 °F 29.78 in Calm     80% 0.00 in 0 W/m2
02:54 64.2 °F 57.8 °F 29.77 in Calm     79.7% 0.00 in 0 W/m2
02:59 64.2 °F 57.9 °F 29.77 in Calm     80% 0.00 in 0 W/m2
03:04 64.1 °F 57.8 °F 29.77 in Calm     80% 0.00 in 0 W/m2
03:09 64 °F 57.7 °F 29.77 in Calm     80% 0.00 in 0 W/m2
03:14 63.8 °F 57.6 °F 29.77 in Calm     80% 0.00 in 0 W/m2
03:19 63.7 °F 57.4 °F 29.77 in Calm     80% 0.00 in 0 W/m2
03:24 63.5 °F 57.2 °F 29.77 in Calm     80% 0.00 in 0 W/m2
03:29 63.4 °F 57.3 °F 29.77 in Calm     80.7% 0.00 in 0 W/m2
03:34 63.2 °F 57.3 °F 29.76 in Calm     81% 0.00 in 0 W/m2
03:39 63 °F 57.1 °F 29.76 in Calm     81% 0.00 in 0 W/m2
03:44 62.9 °F 57 °F 29.77 in Calm     81% 0.00 in 0 W/m2
03:49 62.7 °F 56.8 °F 29.77 in Calm     81% 0.00 in 0 W/m2
03:54 62.6 °F 56.9 °F 29.76 in Calm     81.7% 0.00 in 0 W/m2
03:59 62.5 °F 56.9 °F 29.76 in Calm     82% 0.00 in 0 W/m2
04:00 62.4 °F 56.8 °F 29.76 in Calm     82% 0.00 in 0 W/m2
04:09 62.3 °F 56.7 °F 29.77 in Calm     82% 0.00 in 0 W/m2
04:14 62.2 °F 56.8 °F 29.77 in Calm     82.3% 0.00 in 0 W/m2
04:19 62.2 °F 57 °F 29.76 in Calm     83% 0.00 in 0 W/m2
04:24 62.2 °F 57 °F 29.77 in Calm     83% 0.00 in 0 W/m2
04:29 62.1 °F 56.9 °F 29.77 in Calm     83.1% 0.00 in 0 W/m2
04:34 62.1 °F 57.2 °F 29.76 in Calm     84% 0.00 in 0 W/m2
04:39 62.1 °F 57.2 °F 29.76 in Calm     84% 0.00 in 0 W/m2
04:44 62.1 °F 57.2 °F 29.76 in Calm     84% 0.00 in 0 W/m2
04:49 62.2 °F 57.3 °F 29.76 in Calm     84% 0.00 in 0 W/m2
04:54 62.2 °F 57.3 °F 29.76 in Calm     84% 0.00 in 0 W/m2
04:59 62.3 °F 57.4 °F 29.76 in Calm     84% 0.00 in 0 W/m2
05:04 62.3 °F 57.5 °F 29.76 in Calm     84% 0.00 in 0 W/m2
05:09 62.5 °F 57.6 °F 29.76 in Calm     84% 0.00 in 0 W/m2
05:14 62.6 °F 57.7 °F 29.76 in Calm     84% 0.00 in 0 W/m2
05:19 62.8 °F 57.9 °F 29.76 in Calm     84% 0.00 in 0 W/m2
05:24 62.9 °F 57.8 °F 29.76 in Calm     83.5% 0.00 in 0 W/m2
05:29 63 °F 57.8 °F 29.76 in Calm     83% 0.00 in 0 W/m2
05:34 63.1 °F 57.9 °F 29.76 in Calm     83% 0.00 in 0 W/m2
05:39 63.2 °F 57.9 °F 29.76 in Calm     83% 0.00 in 0 W/m2
05:44 63.2 °F 57.8 °F 29.76 in Calm     82.5% 0.00 in 0 W/m2
05:49 63.3 °F 57.7 °F 29.76 in Calm     82% 0.00 in 0 W/m2
05:54 63.3 °F 57.7 °F 29.76 in Calm     82% 0.00 in 0 W/m2
05:59 63.3 °F 57.8 °F 29.76 in Calm     82% 0.00 in 0 W/m2
06:04 63.4 °F 58.1 °F 29.76 in Calm     83% 0.00 in 0 W/m2
06:09 63.4 °F 58.2 °F 29.76 in Calm     83% 0.00 in 0 W/m2
06:14 63.4 °F 57.8 °F 29.76 in Calm     82.1% 0.00 in 0 W/m2
06:19 63.4 °F 57.8 °F 29.76 in Calm     82% 0.00 in 0 W/m2
06:24 63.4 °F 57.8 °F 29.76 in Calm     82% 0.00 in 0 W/m2
06:29 63.4 °F 57.8 °F 29.76 in Calm     82% 0.00 in 0 W/m2
06:34 63.3 °F 57.7 °F 29.77 in Calm     82% 0.00 in 0 W/m2
06:39 63.2 °F 57.8 °F 29.77 in Calm     82.6% 0.00 in 0 W/m2
06:44 63.1 °F 57.9 °F 29.76 in Calm     83% 0.00 in 0 W/m2
06:49 63.1 °F 58.2 °F 29.76 in Calm     83.9% 0.00 in 0 W/m2
06:54 63.1 °F 58.2 °F 29.76 in Calm     84% 0.00 in 0 W/m2
06:59 63 °F 58.1 °F 29.76 in Calm     84% 0.00 in 0 W/m2
07:04 63 °F 58.3 °F 29.76 in Calm     84.7% 0.00 in 7 W/m2
07:09 63 °F 58.4 °F 29.75 in Calm     85% 0.00 in 12 W/m2
07:14 63 °F 58.4 °F 29.75 in Calm     85% 0.00 in 25 W/m2
07:19 63 °F 58.5 °F 29.75 in Calm     85% 0.00 in 35 W/m2
07:24 63.1 °F 58.5 °F 29.75 in Calm     85% 0.00 in 54 W/m2
07:29 63.2 °F 58.7 °F 29.76 in Calm     85% 0.00 in 54 W/m2
07:34 63.5 °F 58.9 °F 29.76 in Calm     85% 0.00 in 28 W/m2
07:39 63.7 °F 59.2 °F 29.76 in Calm     85.5% 0.00 in 46 W/m2
07:44 63.8 °F 59.2 °F 29.76 in Calm     85% 0.00 in 28 W/m2
07:49 63.9 °F 59.3 °F 29.76 in Calm     85% 0.00 in 7 W/m2
07:54 64 °F 59.3 °F 29.76 in Calm     84.8% 0.00 in 5 W/m2
07:59 64.1 °F 59.2 °F 29.76 in Calm     84% 0.00 in 16 W/m2
08:00 64.1 °F 59.2 °F 29.76 in Calm     84% 0.00 in 16 W/m2
08:09 64.2 °F 59.3 °F 29.77 in Calm     84% 0.00 in 26 W/m2
08:14 64.3 °F 59.4 °F 29.77 in Calm     84% 0.00 in 60 W/m2
08:19 64.3 °F 59.6 °F 29.76 in Calm     84.5% 0.00 in 91 W/m2
08:24 64.4 °F 59.7 °F 29.76 in Calm     84.5% 0.00 in 91 W/m2
08:29 64.6 °F 59.6 °F 29.76 in Calm     84% 0.00 in 104 W/m2
08:34 64.8 °F 59.9 °F 29.76 in SSW 0.1 mph 3 mph 84% 0.00 in 81 W/m2
08:39 65.2 °F 60.3 °F 29.76 in Calm   3 mph 84% 0.00 in 100 W/m2
08:44 65.6 °F 60.4 °F 29.76 in Calm   3 mph 83.4% 0.00 in 102 W/m2
08:49 66 °F 60.7 °F 29.77 in Calm   3 mph 83% 0.00 in 135 W/m2
08:54 66.3 °F 60.9 °F 29.77 in Calm   3 mph 82.7% 0.00 in 127 W/m2
08:59 66.6 °F 60.9 °F 29.76 in Calm   3 mph 82% 0.00 in 116 W/m2
09:04 66.9 °F 61 °F 29.77 in Calm   3 mph 81.3% 0.00 in 174 W/m2
09:09 67.1 °F 61.1 °F 29.77 in Calm     81% 0.00 in 171 W/m2
09:14 67.4 °F 60.9 °F 29.77 in Calm     79.6% 0.00 in 158 W/m2
09:19 67.7 °F 61.3 °F 29.78 in SSW 0.1 mph 3 mph 79.9% 0.00 in 128 W/m2
09:24 67.9 °F 61.8 °F 29.78 in Calm   3 mph 80.7% 0.00 in 127 W/m2
09:29 68 °F 61.9 °F 29.78 in Calm   3 mph 80.8% 0.00 in 127 W/m2
09:34 68.2 °F 62.3 °F 29.78 in Calm   3 mph 81.6% 0.00 in 127 W/m2
09:39 68.3 °F 62.6 °F 29.78 in Calm   1 mph 82% 0.00 in 93 W/m2
09:44 68.4 °F 62.2 °F 29.78 in Calm   1 mph 80.5% 0.00 in 72 W/m2
09:49 68.4 °F 62 °F 29.78 in Calm   1 mph 80% 0.00 in 56 W/m2
09:54 68.4 °F 61.8 °F 29.78 in Calm   1 mph 79.5% 0.00 in 47 W/m2
09:59 68.3 °F 61.9 °F 29.78 in Calm   1 mph 80% 0.00 in 39 W/m2
10:04 68.1 °F 62 °F 29.77 in Calm   1 mph 81% 0.01 in 28 W/m2
10:09 67.7 °F 62.1 °F 29.76 in Calm     82.2% 0.01 in 58 W/m2
10:14 67.4 °F 62.4 °F 29.77 in Calm     84.1% 0.02 in 70 W/m2
10:19 67.2 °F 62.8 °F 29.78 in Calm     85.9% 0.02 in 79 W/m2
10:24 67.1 °F 63 °F 29.78 in Calm     86.9% 0.02 in 91 W/m2
10:29 67 °F 63.3 °F 29.78 in Calm     88% 0.02 in 250 W/m2
10:34 67.3 °F 64.3 °F 29.78 in Calm     89.9% 0.02 in 367 W/m2
10:39 67.7 °F 64.7 °F 29.78 in SSW 0.1 mph 2 mph 90.4% 0.02 in 316 W/m2
10:44 67.8 °F 64.6 °F 29.78 in Calm   2 mph 89.4% 0.02 in 146 W/m2
10:49 68 °F 64.5 °F 29.78 in Calm   2 mph 88.6% 0.02 in 72 W/m2
10:54 68.1 °F 64.4 °F 29.78 in Calm   2 mph 88% 0.02 in 79 W/m2
10:59 68.1 °F 64.3 °F 29.78 in Calm   2 mph 87.7% 0.02 in 67 W/m2
11:04 68 °F 64 °F 29.77 in Calm   2 mph 87% 0.02 in 62 W/m2
11:09 67.9 °F 63.9 °F 29.77 in Calm   1 mph 87% 0.02 in 65 W/m2
11:14 67.8 °F 64 °F 29.78 in Calm   1 mph 87.6% 0.02 in 62 W/m2
11:19 67.7 °F 64 °F 29.77 in Calm   1 mph 88% 0.02 in 47 W/m2
11:24 67.5 °F 63.8 °F 29.78 in Calm   1 mph 88% 0.02 in 25 W/m2
11:29 67.3 °F 63.5 °F 29.80 in SW 1 mph 11 mph 87.8% 0.03 in 9 W/m2
11:34 67 °F 63.1 °F 29.80 in West 1 mph 11 mph 87.5% 0.03 in 5 W/m2
11:39 66.6 °F 62.9 °F 29.79 in WNW 2.9 mph 9 mph 88% 0.07 in 5 W/m2
11:44 66.1 °F 62.7 °F 29.78 in West 0.3 mph 9 mph 88.6% 0.08 in 11 W/m2
11:49 65.8 °F 62.4 °F 29.78 in Calm   9 mph 89% 0.09 in 11 W/m2
11:54 65.5 °F 62.5 °F 29.79 in West 1.7 mph 9 mph 89.9% 0.10 in 11 W/m2
11:59 65.3 °F 62.3 °F 29.80 in West 1.6 mph 11 mph 90% 0.11 in 9 W/m2
12:00 65.1 °F 62.4 °F 29.80 in Calm   11 mph 91% 0.11 in 7 W/m2
12:09 64.8 °F 62.2 °F 29.79 in West 0.4 mph 5 mph 91% 0.13 in 5 W/m2
12:14 64.7 °F 62.2 °F 29.79 in Calm   5 mph 91.8% 0.14 in 5 W/m2
12:19 64.5 °F 62.2 °F 29.78 in Calm   5 mph 92% 0.16 in 7 W/m2
12:24 64.4 °F 62 °F 29.79 in Calm   5 mph 92% 0.18 in 7 W/m2
12:29 64.3 °F 62.1 °F 29.79 in Calm   5 mph 92.4% 0.20 in 7 W/m2
12:34 64.3 °F 62.2 °F 29.79 in Calm   5 mph 93% 0.20 in 7 W/m2
12:39 64.3 °F 62.2 °F 29.79 in Calm     93% 0.23 in 11 W/m2
12:44 64.3 °F 62.2 °F 29.77 in Calm     93% 0.25 in 12 W/m2
12:49 64.2 °F 62.2 °F 29.77 in Calm     93% 0.27 in 14 W/m2
12:54 64.2 °F 62.1 °F 29.77 in Calm     93% 0.29 in 14 W/m2
12:59 64.1 °F 62.3 °F 29.78 in Calm     93.8% 0.31 in 19 W/m2
13:04 64.1 °F 62.4 °F 29.78 in Calm     94% 0.31 in 25 W/m2
13:09 64.2 °F 62.4 °F 29.79 in Calm     94% 0.17 in 33 W/m2
13:14 64.2 °F 62.4 °F 29.79 in Calm     94% 0.18 in 51 W/m2
13:19 64.3 °F 62.5 °F 29.79 in Calm     94% 0.20 in 77 W/m2
13:24 64.3 °F 62.6 °F 29.78 in Calm     94% 0.22 in 132 W/m2
13:29 64.4 °F 62.8 °F 29.78 in Calm     94.6% 0.22 in 160 W/m2
13:34 64.7 °F 63.2 °F 29.78 in Calm     95% 0.22 in 146 W/m2
13:39 64.9 °F 63.4 °F 29.78 in Calm     95% 0.22 in 105 W/m2
13:44 65 °F 63.5 °F 29.78 in Calm     95% 0.22 in 120 W/m2
13:49 65.1 °F 63.6 °F 29.78 in Calm     95% 0.22 in 179 W/m2
13:54 65.2 °F 63.7 °F 29.77 in Calm     95% 0.23 in 176 W/m2
13:59 65.3 °F 63.9 °F 29.77 in Calm     95% 0.23 in 158 W/m2
14:04 65.6 °F 64.1 °F 29.77 in WNW 0.2 mph 3 mph 95% 0.23 in 121 W/m2
14:09 65.8 °F 64.3 °F 29.74 in NNE 2.3 mph 6 mph 95% 0.11 in 107 W/m2
14:14 65.7 °F 64.2 °F 29.72 in NE 0.7 mph 6 mph 95% 0.11 in 104 W/m2
14:19 65.5 °F 64 °F 29.72 in ENE 0.7 mph 6 mph 95% 0.11 in 100 W/m2
14:24 65.5 °F 64 °F 29.72 in Calm   6 mph 95% 0.11 in 121 W/m2
14:29 65.5 °F 64 °F 29.72 in Calm   6 mph 95% 0.11 in 113 W/m2
14:34 65.4 °F 63.9 °F 29.72 in Calm   6 mph 95% 0.11 in 100 W/m2
14:39 65.4 °F 63.9 °F 29.72 in Calm     95% 0.01 in 72 W/m2
14:44 65.4 °F 63.9 °F 29.72 in Calm     95% 0.01 in 51 W/m2
14:49 65.4 °F 64 °F 29.72 in Calm     95% 0.01 in 37 W/m2
14:54 65.5 °F 64 °F 29.72 in Calm     95% 0.01 in 28 W/m2
14:59 65.5 °F 64 °F 29.74 in Calm     95% 0.01 in 18 W/m2
15:04 65.5 °F 64 °F 29.74 in Calm     95% 0.01 in 28 W/m2
15:09 65.5 °F 64 °F 29.75 in Calm     95% 0.00 in 30 W/m2
15:14 65.4 °F 63.9 °F 29.75 in Calm     95% 0.00 in 32 W/m2
15:19 65.4 °F 64 °F 29.75 in Calm     95% 0.01 in 33 W/m2
15:24 65.5 °F 64 °F 29.75 in Calm     95% 0.01 in 40 W/m2
15:29 65.5 °F 64.1 °F 29.75 in Calm     95% 0.01 in 39 W/m2
15:34 65.6 °F 64.1 °F 29.75 in Calm     95% 0.01 in 26 W/m2
15:39 65.6 °F 64.1 °F 29.75 in Calm     95% 0.01 in 25 W/m2
15:44 65.5 °F 64 °F 29.75 in Calm     95% 0.01 in 16 W/m2
15:49 65.4 °F 63.9 °F 29.76 in Calm     95% 0.01 in 14 W/m2
15:54 65.4 °F 63.9 °F 29.76 in Calm     95% 0.02 in 16 W/m2
15:59 65.3 °F 63.8 °F 29.76 in Calm     95% 0.02 in 16 W/m2
16:00 65.3 °F 63.8 °F 29.76 in Calm     95% 0.02 in 11 W/m2
16:09 65.2 °F 63.8 °F 29.76 in Calm     95% 0.02 in 9 W/m2
16:14 65.2 °F 63.7 °F 29.76 in Calm     95% 0.02 in 11 W/m2
16:19 65.2 °F 63.7 °F 29.76 in Calm     95% 0.03 in 7 W/m2
16:24 65.2 °F 63.7 °F 29.76 in Calm   1 mph 95% 0.03 in 12 W/m2
16:29 65.2 °F 63.7 °F 29.76 in Calm   1 mph 95% 0.03 in 12 W/m2
16:34 65.1 °F 63.6 °F 29.76 in Calm   1 mph 95% 0.03 in 9 W/m2
16:39 65.1 °F 63.6 °F 29.76 in Calm     95% 0.02 in 7 W/m2
16:44 65.1 °F 63.6 °F 29.76 in Calm     95% 0.02 in 5 W/m2
16:49 65 °F 63.6 °F 29.76 in Calm     95% 0.03 in 12 W/m2
16:54 65 °F 63.5 °F 29.76 in Calm     95% 0.03 in 14 W/m2
16:59 64.9 °F 63.5 °F 29.76 in Calm     95% 0.03 in 16 W/m2
17:04 64.9 °F 63.4 °F 29.76 in Calm     95% 0.03 in 14 W/m2
17:09 64.9 °F 63.4 °F 29.75 in Calm     95% 0.02 in 19 W/m2
17:14 64.9 °F 63.4 °F 29.75 in Calm     95% 0.02 in 25 W/m2
17:19 64.9 °F 63.5 °F 29.76 in Calm     95% 0.02 in 32 W/m2
17:24 65 °F 63.6 °F 29.76 in Calm     95.3% 0.02 in 30 W/m2
17:29 65.1 °F 63.9 °F 29.76 in Calm     96% 0.02 in 26 W/m2
17:34 65.1 °F 63.9 °F 29.76 in Calm     96% 0.02 in 21 W/m2
17:39 65.2 °F 64 °F 29.76 in Calm     96% 0.01 in 14 W/m2
17:44 65.2 °F 64 °F 29.75 in Calm     96% 0.01 in 12 W/m2
17:49 65.1 °F 63.7 °F 29.76 in Calm   1 mph 95.1% 0.01 in 18 W/m2
17:54 65.1 °F 63.6 °F 29.76 in Calm   1 mph 95% 0.01 in 18 W/m2
17:59 65 °F 63.6 °F 29.76 in Calm   1 mph 95% 0.01 in 11 W/m2
18:04 65 °F 63.5 °F 29.77 in Calm   1 mph 95% 0.01 in 0 W/m2
18:09 65 °F 63.5 °F 29.77 in Calm     95% 0.00 in 0 W/m2
18:14 65 °F 63.6 °F 29.77 in Calm     95.4% 0.00 in 0 W/m2
18:19 64.9 °F 63.4 °F 29.77 in Calm     95% 0.00 in 0 W/m2
18:24 64.8 °F 63.4 °F 29.77 in Calm     95% 0.00 in 0 W/m2
18:29 64.8 °F 63.3 °F 29.78 in Calm     95% 0.00 in 0 W/m2
18:34 64.7 °F 63.3 °F 29.78 in Calm     95% 0.00 in 0 W/m2
18:39 64.7 °F 63.2 °F 29.78 in Calm     95% 0.00 in 0 W/m2
18:44 64.6 °F 63.2 °F 29.78 in Calm     95% 0.00 in 0 W/m2
18:49 64.6 °F 63.1 °F 29.78 in Calm     95% 0.00 in 0 W/m2
18:54 64.5 °F 63 °F 29.78 in Calm     95% 0.00 in 0 W/m2
18:59 64.5 °F 63 °F 29.78 in Calm     95% 0.00 in 0 W/m2
19:04 64.4 °F 63.1 °F 29.78 in Calm     95.5% 0.00 in 0 W/m2
19:09 64.4 °F 63.2 °F 29.79 in Calm     95.8% 0.00 in 0 W/m2
19:14 64.4 °F 63.2 °F 29.79 in ENE 0.1 mph 2 mph 96% 0.00 in 0 W/m2
19:19 64.2 °F 62.9 °F 29.79 in NE 0.8 mph 5 mph 95.2% 0.00 in 0 W/m2
19:24 64 °F 62.5 °F 29.79 in WNW 1.4 mph 5 mph 95% 0.00 in 0 W/m2
19:29 63.7 °F 62.2 °F 29.80 in WNW 2.3 mph 10 mph 95% 0.00 in 0 W/m2
19:34 63.2 °F 61.8 °F 29.80 in West 0.9 mph 10 mph 95% 0.00 in 0 W/m2
19:39 63 °F 61.5 °F 29.80 in WNW 0.7 mph 5 mph 95% 0.00 in 0 W/m2
19:44 62.7 °F 61.1 °F 29.80 in WNW 0.1 mph 5 mph 94.5% 0.00 in 0 W/m2
19:49 62.5 °F 60.7 °F 29.80 in WNW 0.1 mph 5 mph 94% 0.00 in 0 W/m2
19:54 62.3 °F 60.7 °F 29.80 in Calm   5 mph 94.4% 0.00 in 0 W/m2
19:59 62.1 °F 60.4 °F 29.81 in Calm   5 mph 94% 0.00 in 0 W/m2
20:00 62 °F 60.3 °F 29.80 in Calm   5 mph 94% 0.00 in 0 W/m2
20:09 61.7 °F 60 °F 29.81 in WNW 0.2 mph 3 mph 94% 0.00 in 0 W/m2
20:14 61.5 °F 59.8 °F 29.81 in WNW 0.8 mph 4 mph 94% 0.00 in 0 W/m2
20:19 61.3 °F 59.5 °F 29.81 in WNW 0.1 mph 4 mph 94% 0.00 in 0 W/m2
20:24 61 °F 59.3 °F 29.81 in WNW 1.1 mph 4 mph 94% 0.00 in 0 W/m2
20:29 60.7 °F 59 °F 29.81 in WNW 0.6 mph 4 mph 94% 0.00 in 0 W/m2
20:34 60.5 °F 58.6 °F 29.81 in WNW 0.6 mph 5 mph 93.5% 0.00 in 0 W/m2
20:39 60.3 °F 58.3 °F 29.81 in NW 0.3 mph 5 mph 93% 0.00 in 0 W/m2
20:44 60.2 °F 58.1 °F 29.81 in NW 0.4 mph 5 mph 93% 0.00 in 0 W/m2
20:49 60 °F 58 °F 29.81 in NW 0.2 mph 5 mph 93% 0.00 in 0 W/m2
20:54 59.8 °F 57.8 °F 29.81 in NW 0.2 mph 5 mph 93% 0.00 in 0 W/m2
20:59 59.6 °F 57.6 °F 29.81 in Calm   5 mph 93% 0.00 in 0 W/m2
21:04 59.5 °F 57.5 °F 29.82 in Calm   5 mph 93% 0.00 in 0 W/m2
21:09 59.4 °F 57.4 °F 29.82 in Calm     93% 0.00 in 0 W/m2
21:14 59.3 °F 57.3 °F 29.81 in Calm     93% 0.00 in 0 W/m2
21:19 59.2 °F 57.2 °F 29.81 in Calm     93% 0.00 in 0 W/m2
21:24 59 °F 57 °F 29.82 in Calm     93% 0.00 in 0 W/m2
21:29 58.8 °F 56.8 °F 29.82 in Calm     93% 0.00 in 0 W/m2
21:34 58.7 °F 56.7 °F 29.82 in Calm     93% 0.00 in 0 W/m2
21:39 58.5 °F 56.5 °F 29.82 in Calm     93% 0.00 in 0 W/m2
21:44 58.4 °F 56.4 °F 29.82 in NW 0.2 mph 4 mph 93% 0.00 in 0 W/m2
21:49 58.3 °F 56.3 °F 29.82 in NW 1.9 mph 6 mph 93% 0.00 in 0 W/m2
21:54 58.3 °F 56.3 °F 29.82 in WNW 1.3 mph 6 mph 93% 0.00 in 0 W/m2
21:59 58.2 °F 56.2 °F 29.82 in WNW 0.3 mph 6 mph 93% 0.00 in 0 W/m2
22:04 58.1 °F 56.1 °F 29.82 in Calm   6 mph 93% 0.00 in 0 W/m2
22:09 58 °F 56 °F 29.83 in Calm   1 mph 93% 0.00 in 0 W/m2
22:14 57.9 °F 55.9 °F 29.83 in Calm   1 mph 93.1% 0.00 in 0 W/m2
22:19 57.8 °F 55.8 °F 29.83 in WNW 0.1 mph 2 mph 93% 0.00 in 0 W/m2
22:24 57.8 °F 55.8 °F 29.83 in WNW 0.1 mph 3 mph 93.2% 0.00 in 0 W/m2
22:29 57.7 °F 56 °F 29.83 in WNW 0.5 mph 4 mph 94% 0.00 in 0 W/m2
22:34 57.6 °F 55.9 °F 29.83 in Calm   4 mph 94% 0.00 in 0 W/m2
22:39 57.5 °F 55.8 °F 29.83 in Calm     94% 0.00 in 0 W/m2
22:44 57.4 °F 55.7 °F 29.83 in Calm     94% 0.00 in 0 W/m2
22:49 57.3 °F 55.6 °F 29.83 in Calm   1 mph 94% 0.00 in 0 W/m2
22:54 57.3 °F 55.6 °F 29.83 in WNW 0.3 mph 2 mph 94% 0.00 in 0 W/m2
22:59 57.2 °F 55.5 °F 29.83 in WNW 0.3 mph 3 mph 94% 0.00 in 0 W/m2
23:04 57.2 °F 55.5 °F 29.84 in WNW 0.3 mph 5 mph 94% 0.00 in 0 W/m2
23:09 57.1 °F 55.4 °F 29.84 in Calm   5 mph 94% 0.00 in 0 W/m2
23:14 57.1 °F 55.2 °F 29.84 in Calm   5 mph 93.5% 0.00 in 0 W/m2
23:19 57.1 °F 55.2 °F 29.84 in WNW 0.1 mph 5 mph 93.4% 0.00 in 0 W/m2
23:24 57 °F 55.3 °F 29.84 in WNW 0.7 mph 5 mph 94% 0.00 in 0 W/m2
23:29 57.1 °F 55.4 °F 29.84 in WNW 1.9 mph 6 mph 94% 0.00 in 0 W/m2
23:34 57.1 °F 55.1 °F 29.84 in NW 0.9 mph 6 mph 93.1% 0.00 in 0 W/m2
23:39 57.1 °F 55.1 °F 29.84 in NW 2.2 mph 6 mph 93% 0.00 in 0 W/m2
23:44 57 °F 55 °F 29.84 in WNW 1.3 mph 6 mph 93% 0.00 in 0 W/m2
23:49 57 °F 55 °F 29.84 in WNW 1.7 mph 6 mph 93% 0.00 in 0 W/m2
23:54 56.9 °F 54.9 °F 29.84 in WNW 0.8 mph 6 mph 93% 0.00 in 0 W/m2
23:59 56.8 °F 54.8 °F 29.84 in WNW 0.2 mph 6 mph 93% 0.00 in 0 W/m2
Hartford County Weather
Compliments of Weather Underground - 4 mb